Swan Valley, Idaho
Current Conditions -  °F | °C
As of 8:56 PM on Wednesday 26 Nov 2014 (Local Time) from KDIJ Reporting Station
Clear Clear  
Wind Chill:   Ceiling: Unl
Heat Index:   Visibility: 10mi
Dew Point: -2°   Wind: 13mph
Humidity: 65%   Direction: 160°SSE
Pressure: 30.3"   Gusts: NA
Location:  43.46°N, 111.34°W
Report Text: KDIJ 270356Z AUTO 16011KT 10SM CLR 04/M02 A3030 RMK AO2 T00381022 SLP239
Loading
Personal Weather Stations






























Interactive Weather Map New forecast layout! Learn more

10-Day Weather Forecast

Advertisements
Track Severe Weather on mobile